sensor_id;sensor_type;location;lat;lon;timestamp;pressure;altitude;pressure_sealevel;temperature
69435;BMP180;56625;54.322;18.582;2022-11-13T00:03:41;102380.40;;;13.30
69435;BMP180;56625;54.322;18.582;2022-11-13T00:06:09;102380.60;;;13.30
69435;BMP180;56625;54.322;18.582;2022-11-13T00:08:37;102385.80;;;13.30
69435;BMP180;56625;54.322;18.582;2022-11-13T00:11:08;102386.20;;;13.30
69435;BMP180;56625;54.322;18.582;2022-11-13T00:13:35;102381.40;;;13.30
69435;BMP180;56625;54.322;18.582;2022-11-13T00:16:06;102377.20;;;13.28
69435;BMP180;56625;54.322;18.582;2022-11-13T00:18:34;102384.60;;;13.30
69435;BMP180;56625;54.322;18.582;2022-11-13T00:21:13;102382.60;;;13.30
69435;BMP180;56625;54.322;18.582;2022-11-13T00:23:40;102381.00;;;13.30
69435;BMP180;56625;54.322;18.582;2022-11-13T00:26:15;102374.80;;;13.30
69435;BMP180;56625;54.322;18.582;2022-11-13T00:28:43;102375.80;;;13.30
69435;BMP180;56625;54.322;18.582;2022-11-13T00:31:12;102383.20;;;13.30
69435;BMP180;56625;54.322;18.582;2022-11-13T00:33:40;102384.40;;;13.30
69435;BMP180;56625;54.322;18.582;2022-11-13T00:36:27;102389.60;;;13.30
69435;BMP180;56625;54.322;18.582;2022-11-13T00:38:54;102387.00;;;13.30
69435;BMP180;56625;54.322;18.582;2022-11-13T00:41:23;102385.80;;;13.30
69435;BMP180;56625;54.322;18.582;2022-11-13T00:43:50;102383.80;;;13.30
69435;BMP180;56625;54.322;18.582;2022-11-13T00:46:18;102379.40;;;13.30
69435;BMP180;56625;54.322;18.582;2022-11-13T00:48:45;102385.00;;;13.30
69435;BMP180;56625;54.322;18.582;2022-11-13T00:51:11;102376.00;;;13.30
69435;BMP180;56625;54.322;18.582;2022-11-13T00:53:38;102376.00;;;13.30
69435;BMP180;56625;54.322;18.582;2022-11-13T00:56:05;102373.00;;;13.20
69435;BMP180;56625;54.322;18.582;2022-11-13T00:58:31;102369.40;;;13.20
69435;BMP180;56625;54.322;18.582;2022-11-13T01:01:14;102367.20;;;13.20
69435;BMP180;56625;54.322;18.582;2022-11-13T01:03:41;102378.60;;;13.20
69435;BMP180;56625;54.322;18.582;2022-11-13T01:06:16;102372.40;;;13.20
69435;BMP180;56625;54.322;18.582;2022-11-13T01:08:43;102370.80;;;13.20
69435;BMP180;56625;54.322;18.582;2022-11-13T01:11:14;102365.00;;;13.20
69435;BMP180;56625;54.322;18.582;2022-11-13T01:13:44;102368.80;;;13.20
69435;BMP180;56625;54.322;18.582;2022-11-13T01:16:13;102365.60;;;13.20
69435;BMP180;56625;54.322;18.582;2022-11-13T01:18:40;102363.80;;;13.20
69435;BMP180;56625;54.322;18.582;2022-11-13T01:21:18;102363.80;;;13.30
69435;BMP180;56625;54.322;18.582;2022-11-13T01:23:46;102356.20;;;13.30
69435;BMP180;56625;54.322;18.582;2022-11-13T01:26:17;102357.40;;;13.28
69435;BMP180;56625;54.322;18.582;2022-11-13T01:28:45;102353.00;;;13.20
69435;BMP180;56625;54.322;18.582;2022-11-13T01:31:17;102352.20;;;13.20
69435;BMP180;56625;54.322;18.582;2022-11-13T01:33:45;102354.20;;;13.20
69435;BMP180;56625;54.322;18.582;2022-11-13T01:36:20;102355.00;;;13.20
69435;BMP180;56625;54.322;18.582;2022-11-13T01:38:48;102351.00;;;13.20
69435;BMP180;56625;54.322;18.582;2022-11-13T01:41:22;102359.40;;;13.20
69435;BMP180;56625;54.322;18.582;2022-11-13T01:43:51;102352.20;;;13.20
69435;BMP180;56625;54.322;18.582;2022-11-13T01:46:25;102346.60;;;13.20
69435;BMP180;56625;54.322;18.582;2022-11-13T01:51:45;102342.60;;;13.20
69435;BMP180;56625;54.322;18.582;2022-11-13T01:57:15;102340.40;;;13.20
69435;BMP180;56625;54.322;18.582;2022-11-13T01:59:49;102349.80;;;13.20
69435;BMP180;56625;54.322;18.582;2022-11-13T02:02:16;102344.40;;;13.20
69435;BMP180;56625;54.322;18.582;2022-11-13T02:04:44;102341.40;;;13.20
69435;BMP180;56625;54.322;18.582;2022-11-13T02:07:18;102343.00;;;13.20
69435;BMP180;56625;54.322;18.582;2022-11-13T02:09:50;102342.00;;;13.20
69435;BMP180;56625;54.322;18.582;2022-11-13T02:12:28;102340.00;;;13.20
69435;BMP180;56625;54.322;18.582;2022-11-13T02:14:57;102335.20;;;13.20
69435;BMP180;56625;54.322;18.582;2022-11-13T02:17:56;102332.00;;;13.18
69435;BMP180;56625;54.322;18.582;2022-11-13T02:21:03;102331.00;;;13.10
69435;BMP180;56625;54.322;18.582;2022-11-13T02:23:46;102331.20;;;13.18
69435;BMP180;56625;54.322;18.582;2022-11-13T02:26:18;102334.40;;;13.20
69435;BMP180;56625;54.322;18.582;2022-11-13T02:28:46;102332.20;;;13.30
69435;BMP180;56625;54.322;18.582;2022-11-13T02:31:13;102339.80;;;13.30
69435;BMP180;56625;54.322;18.582;2022-11-13T02:33:40;102333.00;;;13.30
69435;BMP180;56625;54.322;18.582;2022-11-13T02:36:09;102328.20;;;13.30
69435;BMP180;56625;54.322;18.582;2022-11-13T02:38:39;102329.20;;;13.24
69435;BMP180;56625;54.322;18.582;2022-11-13T02:41:06;102334.60;;;13.30
69435;BMP180;56625;54.322;18.582;2022-11-13T02:43:33;102334.80;;;13.34
69435;BMP180;56625;54.322;18.582;2022-11-13T02:45:59;102334.80;;;13.40
69435;BMP180;56625;54.322;18.582;2022-11-13T02:48:26;102325.60;;;13.40
69435;BMP180;56625;54.322;18.582;2022-11-13T02:50:53;102322.60;;;13.36
69435;BMP180;56625;54.322;18.582;2022-11-13T02:53:20;102323.60;;;13.30
69435;BMP180;56625;54.322;18.582;2022-11-13T02:55:47;102326.80;;;13.30
69435;BMP180;56625;54.322;18.582;2022-11-13T02:58:13;102325.20;;;13.20
69435;BMP180;56625;54.322;18.582;2022-11-13T03:00:40;102333.80;;;13.30
69435;BMP180;56625;54.322;18.582;2022-11-13T03:03:06;102334.80;;;13.20
69435;BMP180;56625;54.322;18.582;2022-11-13T03:05:33;102333.40;;;13.20
69435;BMP180;56625;54.322;18.582;2022-11-13T03:07:59;102331.80;;;13.30
69435;BMP180;56625;54.322;18.582;2022-11-13T03:10:26;102333.20;;;13.26
69435;BMP180;56625;54.322;18.582;2022-11-13T03:12:52;102333.60;;;13.24
69435;BMP180;56625;54.322;18.582;2022-11-13T03:15:19;102335.80;;;13.30
69435;BMP180;56625;54.322;18.582;2022-11-13T03:17:46;102336.40;;;13.30
69435;BMP180;56625;54.322;18.582;2022-11-13T03:20:12;102340.20;;;13.30
69435;BMP180;56625;54.322;18.582;2022-11-13T03:22:39;102342.60;;;13.30
69435;BMP180;56625;54.322;18.582;2022-11-13T03:25:06;102342.40;;;13.40
69435;BMP180;56625;54.322;18.582;2022-11-13T03:27:36;102340.80;;;13.40
69435;BMP180;56625;54.322;18.582;2022-11-13T03:30:04;102345.40;;;13.40
69435;BMP180;56625;54.322;18.582;2022-11-13T03:32:31;102340.00;;;13.30
69435;BMP180;56625;54.322;18.582;2022-11-13T03:34:58;102338.00;;;13.30
69435;BMP180;56625;54.322;18.582;2022-11-13T03:37:24;102337.40;;;13.30
69435;BMP180;56625;54.322;18.582;2022-11-13T03:39:51;102336.00;;;13.36
69435;BMP180;56625;54.322;18.582;2022-11-13T03:42:17;102340.60;;;13.32
69435;BMP180;56625;54.322;18.582;2022-11-13T03:44:44;102337.40;;;13.38
69435;BMP180;56625;54.322;18.582;2022-11-13T03:47:10;102338.40;;;13.30
69435;BMP180;56625;54.322;18.582;2022-11-13T03:49:37;102334.00;;;13.30
69435;BMP180;56625;54.322;18.582;2022-11-13T03:52:04;102336.60;;;13.26
69435;BMP180;56625;54.322;18.582;2022-11-13T03:54:30;102334.60;;;13.22
69435;BMP180;56625;54.322;18.582;2022-11-13T03:56:57;102338.60;;;13.30
69435;BMP180;56625;54.322;18.582;2022-11-13T03:59:24;102334.40;;;13.34
69435;BMP180;56625;54.322;18.582;2022-11-13T04:01:50;102336.00;;;13.30
69435;BMP180;56625;54.322;18.582;2022-11-13T04:04:17;102338.80;;;13.30
69435;BMP180;56625;54.322;18.582;2022-11-13T04:06:43;102339.60;;;13.30
69435;BMP180;56625;54.322;18.582;2022-11-13T04:09:11;102338.60;;;13.30
69435;BMP180;56625;54.322;18.582;2022-11-13T04:11:37;102336.00;;;13.40
69435;BMP180;56625;54.322;18.582;2022-11-13T04:14:04;102333.00;;;13.50
69435;BMP180;56625;54.322;18.582;2022-11-13T04:16:30;102333.80;;;13.46
69435;BMP180;56625;54.322;18.582;2022-11-13T04:18:57;102336.00;;;13.40
69435;BMP180;56625;54.322;18.582;2022-11-13T04:21:24;102335.40;;;13.30
69435;BMP180;56625;54.322;18.582;2022-11-13T04:23:50;102342.00;;;13.30
69435;BMP180;56625;54.322;18.582;2022-11-13T04:26:17;102344.20;;;13.30
69435;BMP180;56625;54.322;18.582;2022-11-13T04:28:43;102346.80;;;13.20
69435;BMP180;56625;54.322;18.582;2022-11-13T04:31:10;102345.00;;;13.10
69435;BMP180;56625;54.322;18.582;2022-11-13T04:33:36;102340.00;;;13.02
69435;BMP180;56625;54.322;18.582;2022-11-13T04:36:03;102346.20;;;13.00
69435;BMP180;56625;54.322;18.582;2022-11-13T04:38:30;102351.00;;;12.90
69435;BMP180;56625;54.322;18.582;2022-11-13T04:40:57;102353.00;;;12.90
69435;BMP180;56625;54.322;18.582;2022-11-13T04:43:42;102354.00;;;12.90
69435;BMP180;56625;54.322;18.582;2022-11-13T04:46:09;102356.00;;;12.90
69435;BMP180;56625;54.322;18.582;2022-11-13T04:48:35;102356.20;;;12.90
69435;BMP180;56625;54.322;18.582;2022-11-13T04:51:02;102350.60;;;12.90
69435;BMP180;56625;54.322;18.582;2022-11-13T04:53:29;102356.60;;;12.90
69435;BMP180;56625;54.322;18.582;2022-11-13T04:55:55;102349.60;;;12.90
69435;BMP180;56625;54.322;18.582;2022-11-13T04:58:22;102351.00;;;12.84
69435;BMP180;56625;54.322;18.582;2022-11-13T05:00:48;102349.60;;;12.86
69435;BMP180;56625;54.322;18.582;2022-11-13T05:03:15;102346.40;;;12.84
69435;BMP180;56625;54.322;18.582;2022-11-13T05:05:41;102340.60;;;12.80
69435;BMP180;56625;54.322;18.582;2022-11-13T05:08:08;102344.40;;;12.80
69435;BMP180;56625;54.322;18.582;2022-11-13T05:10:36;102350.60;;;12.80
69435;BMP180;56625;54.322;18.582;2022-11-13T05:13:02;102357.20;;;12.80
69435;BMP180;56625;54.322;18.582;2022-11-13T05:15:29;102361.40;;;12.98
69435;BMP180;56625;54.322;18.582;2022-11-13T05:17:55;102356.00;;;13.04
69435;BMP180;56625;54.322;18.582;2022-11-13T05:20:22;102352.00;;;13.10
69435;BMP180;56625;54.322;18.582;2022-11-13T05:22:49;102345.80;;;13.04
69435;BMP180;56625;54.322;18.582;2022-11-13T05:25:15;102348.00;;;13.10
69435;BMP180;56625;54.322;18.582;2022-11-13T05:27:42;102346.40;;;13.20
69435;BMP180;56625;54.322;18.582;2022-11-13T05:30:09;102346.80;;;13.30
69435;BMP180;56625;54.322;18.582;2022-11-13T05:32:35;102350.40;;;13.30
69435;BMP180;56625;54.322;18.582;2022-11-13T05:35:02;102348.00;;;13.20
69435;BMP180;56625;54.322;18.582;2022-11-13T05:37:29;102354.00;;;13.20
69435;BMP180;56625;54.322;18.582;2022-11-13T05:39:55;102358.80;;;13.20
69435;BMP180;56625;54.322;18.582;2022-11-13T05:42:22;102355.60;;;13.10
69435;BMP180;56625;54.322;18.582;2022-11-13T05:44:48;102355.20;;;13.20
69435;BMP180;56625;54.322;18.582;2022-11-13T05:47:15;102357.00;;;13.20
69435;BMP180;56625;54.322;18.582;2022-11-13T05:49:41;102362.40;;;13.30
69435;BMP180;56625;54.322;18.582;2022-11-13T05:52:08;102366.40;;;13.20
69435;BMP180;56625;54.322;18.582;2022-11-13T05:54:34;102358.00;;;13.00
69435;BMP180;56625;54.322;18.582;2022-11-13T05:57:01;102352.40;;;13.00
69435;BMP180;56625;54.322;18.582;2022-11-13T05:59:27;102357.60;;;13.00
69435;BMP180;56625;54.322;18.582;2022-11-13T06:01:54;102357.40;;;13.00
69435;BMP180;56625;54.322;18.582;2022-11-13T06:04:21;102357.40;;;13.00
69435;BMP180;56625;54.322;18.582;2022-11-13T06:06:47;102361.40;;;13.00
69435;BMP180;56625;54.322;18.582;2022-11-13T06:09:14;102364.00;;;13.00
69435;BMP180;56625;54.322;18.582;2022-11-13T06:11:43;102359.20;;;12.94
69435;BMP180;56625;54.322;18.582;2022-11-13T06:14:09;102361.40;;;13.00
69435;BMP180;56625;54.322;18.582;2022-11-13T06:16:38;102358.80;;;13.00
69435;BMP180;56625;54.322;18.582;2022-11-13T06:19:09;102353.00;;;13.10
69435;BMP180;56625;54.322;18.582;2022-11-13T06:21:39;102365.00;;;13.10
69435;BMP180;56625;54.322;18.582;2022-11-13T06:24:08;102362.00;;;13.10
69435;BMP180;56625;54.322;18.582;2022-11-13T06:26:36;102362.40;;;13.00
69435;BMP180;56625;54.322;18.582;2022-11-13T06:29:04;102373.80;;;13.00
69435;BMP180;56625;54.322;18.582;2022-11-13T06:31:34;102372.40;;;13.02
69435;BMP180;56625;54.322;18.582;2022-11-13T06:34:03;102377.40;;;13.00
69435;BMP180;56625;54.322;18.582;2022-11-13T06:36:35;102367.40;;;13.00
69435;BMP180;56625;54.322;18.582;2022-11-13T06:39:07;102372.20;;;13.00
69435;BMP180;56625;54.322;18.582;2022-11-13T06:41:37;102373.60;;;12.92
69435;BMP180;56625;54.322;18.582;2022-11-13T06:44:03;102378.80;;;12.90
69435;BMP180;56625;54.322;18.582;2022-11-13T06:46:30;102380.60;;;13.00
69435;BMP180;56625;54.322;18.582;2022-11-13T06:48:57;102384.80;;;13.00
69435;BMP180;56625;54.322;18.582;2022-11-13T06:51:28;102381.00;;;13.00
69435;BMP180;56625;54.322;18.582;2022-11-13T06:53:56;102385.00;;;13.00
69435;BMP180;56625;54.322;18.582;2022-11-13T06:56:24;102390.60;;;13.00
69435;BMP180;56625;54.322;18.582;2022-11-13T06:58:53;102390.80;;;13.00
69435;BMP180;56625;54.322;18.582;2022-11-13T07:01:24;102387.80;;;12.92
69435;BMP180;56625;54.322;18.582;2022-11-13T07:03:50;102391.80;;;12.90
69435;BMP180;56625;54.322;18.582;2022-11-13T07:06:23;102393.40;;;12.90
69435;BMP180;56625;54.322;18.582;2022-11-13T07:08:50;102391.60;;;12.90
69435;BMP180;56625;54.322;18.582;2022-11-13T07:11:20;102391.60;;;12.90
69435;BMP180;56625;54.322;18.582;2022-11-13T07:13:48;102388.80;;;12.90
69435;BMP180;56625;54.322;18.582;2022-11-13T07:16:16;102388.20;;;12.90
69435;BMP180;56625;54.322;18.582;2022-11-13T07:18:52;102393.80;;;12.90
69435;BMP180;56625;54.322;18.582;2022-11-13T07:21:20;102392.60;;;13.00
69435;BMP180;56625;54.322;18.582;2022-11-13T07:23:48;102392.60;;;13.10
69435;BMP180;56625;54.322;18.582;2022-11-13T07:26:16;102394.40;;;13.10
69435;BMP180;56625;54.322;18.582;2022-11-13T07:28:43;102389.60;;;13.10
69435;BMP180;56625;54.322;18.582;2022-11-13T07:31:12;102390.80;;;13.10
69435;BMP180;56625;54.322;18.582;2022-11-13T07:33:39;102391.00;;;13.20
69435;BMP180;56625;54.322;18.582;2022-11-13T07:36:07;102387.80;;;13.30
69435;BMP180;56625;54.322;18.582;2022-11-13T07:38:36;102386.80;;;13.40
69435;BMP180;56625;54.322;18.582;2022-11-13T07:41:03;102383.00;;;13.50
69435;BMP180;56625;54.322;18.582;2022-11-13T07:43:30;102380.60;;;13.50
69435;BMP180;56625;54.322;18.582;2022-11-13T07:45:58;102377.80;;;13.52
69435;BMP180;56625;54.322;18.582;2022-11-13T07:48:26;102376.60;;;13.60
69435;BMP180;56625;54.322;18.582;2022-11-13T07:50:54;102379.60;;;13.68
69435;BMP180;56625;54.322;18.582;2022-11-13T07:53:24;102381.20;;;13.70
69435;BMP180;56625;54.322;18.582;2022-11-13T07:55:51;102383.00;;;13.70
69435;BMP180;56625;54.322;18.582;2022-11-13T07:58:17;102376.20;;;13.66
69435;BMP180;56625;54.322;18.582;2022-11-13T08:00:44;102375.00;;;13.70
69435;BMP180;56625;54.322;18.582;2022-11-13T08:03:14;102382.40;;;13.70
69435;BMP180;56625;54.322;18.582;2022-11-13T08:05:42;102395.00;;;13.80
69435;BMP180;56625;54.322;18.582;2022-11-13T08:08:13;102388.80;;;13.90
69435;BMP180;56625;54.322;18.582;2022-11-13T08:10:40;102387.20;;;13.98
69435;BMP180;56625;54.322;18.582;2022-11-13T08:13:09;102388.20;;;13.90
69435;BMP180;56625;54.322;18.582;2022-11-13T08:15:36;102381.80;;;13.80
69435;BMP180;56625;54.322;18.582;2022-11-13T08:18:04;102387.40;;;13.72
69435;BMP180;56625;54.322;18.582;2022-11-13T08:20:32;102391.00;;;13.70
69435;BMP180;56625;54.322;18.582;2022-11-13T08:23:01;102394.20;;;13.70
69435;BMP180;56625;54.322;18.582;2022-11-13T08:25:29;102397.80;;;13.80
69435;BMP180;56625;54.322;18.582;2022-11-13T08:27:56;102396.80;;;13.80
69435;BMP180;56625;54.322;18.582;2022-11-13T08:30:26;102398.00;;;13.80
69435;BMP180;56625;54.322;18.582;2022-11-13T08:32:54;102397.00;;;13.80
69435;BMP180;56625;54.322;18.582;2022-11-13T08:35:20;102395.40;;;13.90
69435;BMP180;56625;54.322;18.582;2022-11-13T08:38:05;102393.00;;;14.04
69435;BMP180;56625;54.322;18.582;2022-11-13T08:40:32;102392.00;;;14.20
69435;BMP180;56625;54.322;18.582;2022-11-13T08:43:03;102394.20;;;14.30
69435;BMP180;56625;54.322;18.582;2022-11-13T08:45:30;102392.60;;;14.40
69435;BMP180;56625;54.322;18.582;2022-11-13T08:48:05;102390.60;;;14.50
69435;BMP180;56625;54.322;18.582;2022-11-13T08:50:33;102391.20;;;14.54
69435;BMP180;56625;54.322;18.582;2022-11-13T08:53:00;102388.40;;;14.60
69435;BMP180;56625;54.322;18.582;2022-11-13T08:55:27;102385.00;;;14.60
69435;BMP180;56625;54.322;18.582;2022-11-13T08:57:58;102386.20;;;14.68
69435;BMP180;56625;54.322;18.582;2022-11-13T09:00:27;102386.80;;;14.70
69435;BMP180;56625;54.322;18.582;2022-11-13T09:02:56;102386.20;;;14.80
69435;BMP180;56625;54.322;18.582;2022-11-13T09:05:24;102381.60;;;14.80
69435;BMP180;56625;54.322;18.582;2022-11-13T09:07:56;102379.40;;;14.90
69435;BMP180;56625;54.322;18.582;2022-11-13T09:10:23;102384.80;;;14.90
69435;BMP180;56625;54.322;18.582;2022-11-13T09:12:59;102382.80;;;14.82
69435;BMP180;56625;54.322;18.582;2022-11-13T09:15:29;102383.20;;;14.90
69435;BMP180;56625;54.322;18.582;2022-11-13T09:17:58;102377.00;;;15.00
69435;BMP180;56625;54.322;18.582;2022-11-13T09:20:26;102379.40;;;15.00
69435;BMP180;56625;54.322;18.582;2022-11-13T09:23:05;102380.80;;;15.04
69435;BMP180;56625;54.322;18.582;2022-11-13T09:25:35;102378.80;;;15.10
69435;BMP180;56625;54.322;18.582;2022-11-13T09:28:05;102375.80;;;15.20
69435;BMP180;56625;54.322;18.582;2022-11-13T09:30:33;102379.60;;;15.04
69435;BMP180;56625;54.322;18.582;2022-11-13T09:33:00;102378.20;;;14.98
69435;BMP180;56625;54.322;18.582;2022-11-13T09:35:28;102382.20;;;14.84
69435;BMP180;56625;54.322;18.582;2022-11-13T09:38:09;102374.00;;;14.76
69435;BMP180;56625;54.322;18.582;2022-11-13T09:40:57;102376.60;;;14.70
69435;BMP180;56625;54.322;18.582;2022-11-13T09:43:50;102378.00;;;14.60
69435;BMP180;56625;54.322;18.582;2022-11-13T09:49:32;102374.60;;;14.50
69435;BMP180;56625;54.322;18.582;2022-11-13T09:52:13;102372.00;;;14.40
69435;BMP180;56625;54.322;18.582;2022-11-13T09:54:40;102366.40;;;14.40
69435;BMP180;56625;54.322;18.582;2022-11-13T10:00:23;102364.80;;;14.30
69435;BMP180;56625;54.322;18.582;2022-11-13T10:03:21;102356.80;;;14.30
69435;BMP180;56625;54.322;18.582;2022-11-13T10:06:21;102355.60;;;14.30
69435;BMP180;56625;54.322;18.582;2022-11-13T10:09:02;102360.80;;;14.30
69435;BMP180;56625;54.322;18.582;2022-11-13T10:11:49;102362.40;;;14.40
69435;BMP180;56625;54.322;18.582;2022-11-13T10:14:28;102363.60;;;14.56
69435;BMP180;56625;54.322;18.582;2022-11-13T10:17:05;102357.00;;;14.60
69435;BMP180;56625;54.322;18.582;2022-11-13T10:19:52;102358.00;;;14.64
69435;BMP180;56625;54.322;18.582;2022-11-13T10:22:51;102356.00;;;14.70
69435;BMP180;56625;54.322;18.582;2022-11-13T10:25:23;102352.20;;;14.70
69435;BMP180;56625;54.322;18.582;2022-11-13T10:27:56;102351.40;;;14.70
69435;BMP180;56625;54.322;18.582;2022-11-13T10:34:06;102346.00;;;14.70
69435;BMP180;56625;54.322;18.582;2022-11-13T10:36:41;102345.60;;;14.70
69435;BMP180;56625;54.322;18.582;2022-11-13T10:39:10;102346.20;;;14.80
69435;BMP180;56625;54.322;18.582;2022-11-13T10:41:48;102342.20;;;14.80
69435;BMP180;56625;54.322;18.582;2022-11-13T10:44:32;102340.40;;;14.78
69435;BMP180;56625;54.322;18.582;2022-11-13T10:47:15;102336.40;;;14.80
69435;BMP180;56625;54.322;18.582;2022-11-13T10:50:20;102340.00;;;14.90
69435;BMP180;56625;54.322;18.582;2022-11-13T10:52:49;102331.00;;;14.90
69435;BMP180;56625;54.322;18.582;2022-11-13T10:55:26;102333.40;;;14.90
69435;BMP180;56625;54.322;18.582;2022-11-13T10:58:00;102332.00;;;15.00
69435;BMP180;56625;54.322;18.582;2022-11-13T11:00:36;102329.60;;;15.00
69435;BMP180;56625;54.322;18.582;2022-11-13T11:03:15;102330.80;;;15.00
69435;BMP180;56625;54.322;18.582;2022-11-13T11:05:54;102328.20;;;14.90
69435;BMP180;56625;54.322;18.582;2022-11-13T11:08:28;102330.20;;;14.80
69435;BMP180;56625;54.322;18.582;2022-11-13T11:11:15;102335.20;;;14.80
69435;BMP180;56625;54.322;18.582;2022-11-13T11:14:37;102332.80;;;14.70
69435;BMP180;56625;54.322;18.582;2022-11-13T11:17:09;102332.80;;;14.60
69435;BMP180;56625;54.322;18.582;2022-11-13T11:19:38;102331.60;;;14.60
69435;BMP180;56625;54.322;18.582;2022-11-13T11:22:19;102324.40;;;14.60
69435;BMP180;56625;54.322;18.582;2022-11-13T11:25:13;102324.20;;;14.60
69435;BMP180;56625;54.322;18.582;2022-11-13T11:28:01;102327.00;;;14.50
69435;BMP180;56625;54.322;18.582;2022-11-13T11:30:54;102325.60;;;14.40
69435;BMP180;56625;54.322;18.582;2022-11-13T11:37:02;102326.80;;;14.20
69435;BMP180;56625;54.322;18.582;2022-11-13T11:45:15;102318.60;;;14.10
69435;BMP180;56625;54.322;18.582;2022-11-13T11:47:42;102324.20;;;14.04
69435;BMP180;56625;54.322;18.582;2022-11-13T11:50:17;102321.60;;;14.00
69435;BMP180;56625;54.322;18.582;2022-11-13T11:53:13;102316.20;;;14.00
69435;BMP180;56625;54.322;18.582;2022-11-13T11:56:17;102320.80;;;14.00
69435;BMP180;56625;54.322;18.582;2022-11-13T12:02:11;102319.60;;;14.02
69435;BMP180;56625;54.322;18.582;2022-11-13T12:07:48;102320.80;;;14.10
69435;BMP180;56625;54.322;18.582;2022-11-13T12:10:45;102321.00;;;14.12
69435;BMP180;56625;54.322;18.582;2022-11-13T12:13:28;102322.00;;;14.18
69435;BMP180;56625;54.322;18.582;2022-11-13T12:16:04;102324.60;;;14.20
69435;BMP180;56625;54.322;18.582;2022-11-13T12:21:45;102325.20;;;14.20
69435;BMP180;56625;54.322;18.582;2022-11-13T12:27:51;102322.60;;;14.22
69435;BMP180;56625;54.322;18.582;2022-11-13T12:30:26;102327.80;;;14.30
69435;BMP180;56625;54.322;18.582;2022-11-13T12:35:49;102332.40;;;14.30
69435;BMP180;56625;54.322;18.582;2022-11-13T12:38:45;102330.40;;;14.30
69435;BMP180;56625;54.322;18.582;2022-11-13T12:44:21;102323.00;;;14.40
69435;BMP180;56625;54.322;18.582;2022-11-13T12:46:49;102327.80;;;14.40
69435;BMP180;56625;54.322;18.582;2022-11-13T12:49:27;102321.40;;;14.36
69435;BMP180;56625;54.322;18.582;2022-11-13T12:54:35;102313.80;;;14.30
69435;BMP180;56625;54.322;18.582;2022-11-13T12:59:41;102314.00;;;14.20
69435;BMP180;56625;54.322;18.582;2022-11-13T13:02:30;102315.00;;;14.20
69435;BMP180;56625;54.322;18.582;2022-11-13T13:05:27;102313.60;;;14.14
69435;BMP180;56625;54.322;18.582;2022-11-13T13:11:37;102311.80;;;14.00
69435;BMP180;56625;54.322;18.582;2022-11-13T13:17:19;102310.20;;;14.00
69435;BMP180;56625;54.322;18.582;2022-11-13T13:19:57;102310.20;;;14.00
69435;BMP180;56625;54.322;18.582;2022-11-13T13:22:31;102304.00;;;13.98
69435;BMP180;56625;54.322;18.582;2022-11-13T13:25:31;102298.60;;;13.94
69435;BMP180;56625;54.322;18.582;2022-11-13T13:31:38;102294.00;;;13.90
69435;BMP180;56625;54.322;18.582;2022-11-13T13:34:16;102287.00;;;13.98
69435;BMP180;56625;54.322;18.582;2022-11-13T13:40:14;102262.80;;;13.90
69435;BMP180;56625;54.322;18.582;2022-11-13T13:48:45;102254.80;;;13.70
69435;BMP180;56625;54.322;18.582;2022-11-13T13:51:25;102249.40;;;13.70
69435;BMP180;56625;54.322;18.582;2022-11-13T13:53:55;102247.80;;;13.70
69435;BMP180;56625;54.322;18.582;2022-11-13T13:56:25;102243.60;;;13.62
69435;BMP180;56625;54.322;18.582;2022-11-13T13:58:53;102241.60;;;13.60
69435;BMP180;56625;54.322;18.582;2022-11-13T14:01:32;102234.60;;;13.50
69435;BMP180;56625;54.322;18.582;2022-11-13T14:04:21;102236.80;;;13.50
69435;BMP180;56625;54.322;18.582;2022-11-13T14:06:57;102238.80;;;13.54
69435;BMP180;56625;54.322;18.582;2022-11-13T14:09:29;102232.80;;;13.60
69435;BMP180;56625;54.322;18.582;2022-11-13T14:12:01;102229.60;;;13.60
69435;BMP180;56625;54.322;18.582;2022-11-13T14:14:38;102223.40;;;13.58
69435;BMP180;56625;54.322;18.582;2022-11-13T14:17:08;102220.60;;;13.50
69435;BMP180;56625;54.322;18.582;2022-11-13T14:19:35;102221.60;;;13.44
69435;BMP180;56625;54.322;18.582;2022-11-13T14:22:05;102218.60;;;13.40
69435;BMP180;56625;54.322;18.582;2022-11-13T14:24:45;102223.80;;;13.40
69435;BMP180;56625;54.322;18.582;2022-11-13T14:27:22;102220.60;;;13.40
69435;BMP180;56625;54.322;18.582;2022-11-13T14:29:56;102225.20;;;13.38
69435;BMP180;56625;54.322;18.582;2022-11-13T14:32:28;102226.60;;;13.30
69435;BMP180;56625;54.322;18.582;2022-11-13T14:35:00;102224.80;;;13.30
69435;BMP180;56625;54.322;18.582;2022-11-13T14:37:37;102214.20;;;13.30
69435;BMP180;56625;54.322;18.582;2022-11-13T14:42:52;102225.60;;;13.20
69435;BMP180;56625;54.322;18.582;2022-11-13T14:45:30;102221.60;;;13.12
69435;BMP180;56625;54.322;18.582;2022-11-13T14:48:03;102228.80;;;13.10
69435;BMP180;56625;54.322;18.582;2022-11-13T14:50:34;102230.40;;;13.10
69435;BMP180;56625;54.322;18.582;2022-11-13T14:53:07;102234.20;;;13.10
69435;BMP180;56625;54.322;18.582;2022-11-13T14:55:48;102236.00;;;13.10
69435;BMP180;56625;54.322;18.582;2022-11-13T14:58:39;102237.60;;;13.10
69435;BMP180;56625;54.322;18.582;2022-11-13T15:01:15;102227.00;;;13.10
69435;BMP180;56625;54.322;18.582;2022-11-13T15:03:44;102227.40;;;13.10
69435;BMP180;56625;54.322;18.582;2022-11-13T15:06:20;102232.60;;;13.10
69435;BMP180;56625;54.322;18.582;2022-11-13T15:08:50;102234.80;;;13.20
69435;BMP180;56625;54.322;18.582;2022-11-13T15:11:23;102240.40;;;13.20
69435;BMP180;56625;54.322;18.582;2022-11-13T15:13:50;102240.40;;;13.20
69435;BMP180;56625;54.322;18.582;2022-11-13T15:16:27;102233.20;;;13.20
69435;BMP180;56625;54.322;18.582;2022-11-13T15:19:12;102236.80;;;13.20
69435;BMP180;56625;54.322;18.582;2022-11-13T15:21:40;102236.80;;;13.20
69435;BMP180;56625;54.322;18.582;2022-11-13T15:24:17;102239.80;;;13.20